Stonington, CT

3:06 PM EST on March 02, 2015 (GMT -0500)
Masons Island Marina | Change Station
CLOSE
Current Station
Personal Weather Station
Location: Stonington, CT
Elevation: 30 ft
Nearby Weather Stations

Elev 30 ft 41.34 °N, 71.96 °W | Updated 6 seconds ago

Partly Cloudy
Partly Cloudy
35.1 °F
Feels Like 24 °F
N
21.0
Wind Variable Wind from WNW
Gusts 25.0 mph

Today
High -- | Low -- °F
--% Chance of Precip.
Yesterday
High -- | Low -- °F
Precip. -- in
6:20 AM 5:39 PM
Waxing Gibbous, 92% visible
Pressure 30.05 in
Visibility 10.0 miles
Clouds Clear
Windchill 24 °F
Dew Point 15 °F
Humidity 44%
Rainfall 0.00 in
Snow Depth Not available.
UV 3 out of 12
Pollen .40 out of 12
Air Quality Not available.
Flu Activity Not available.
METAR KWST 021953Z AUTO 30011G19KT 10SM CLR 02/M12 A3005 RMK AO2 PK WND 32026/1858 SLP175 T00221117

More Conditions Fewer Conditions

Pressure 30.05 in
Visibility 10.0 miles
Clouds Clear
Windchill 24 °F
Dew Point 15 °F
Humidity 44%
Rainfall 0.00 in
Snow Depth Not available.
UV 3 out of 12
Pollen .40 out of 12
Air Quality Not available.
Flu Activity Not available.
METAR KWST 021953Z AUTO 30011G19KT 10SM CLR 02/M12 A3005 RMK AO2 PK WND 32026/1858 SLP175 T00221117

More Conditions Fewer Conditions

10-Day Weather Forecast

Almanac

Astronomy

Mar. 02, 2015 Rise Set
Actual Time
Civil Twilight
Nautical Twilight
Astronomical Twilight
Moon
Length of Visible Light
Length of Day
Tomorrow will be .
, % of the Moon is Illuminated

Today's Extremes

State Highs State Lows

Community

WunderPhotos

Upload Photos

1,801,927 photos uploaded!

WunderBlogs® & News

Nearby

Air Quality

  Air Quality AQ Index Pollutant
Not available.

Snow Depth

Station Depth Elevation

Earthquake Activity

City Distance Mag. Time & Date
Minimum magnitude displayed is 2.5.

Coastal Water Temperatures

Place Temperature

Nearby Weather Stations